sensor_id;sensor_type;location;lat;lon;timestamp;P1;durP1;ratioP1;P2;durP2;ratioP2
54454;SDS011;40364;52.270;10.546;2023-02-04T00:01:30;4.57;;;0.98;;
54454;SDS011;40364;52.270;10.546;2023-02-04T00:03:57;3.17;;;1.20;;
54454;SDS011;40364;52.270;10.546;2023-02-04T00:06:24;2.50;;;0.80;;
54454;SDS011;40364;52.270;10.546;2023-02-04T00:08:51;3.75;;;0.80;;
54454;SDS011;40364;52.270;10.546;2023-02-04T00:11:17;1.58;;;0.70;;
54454;SDS011;40364;52.270;10.546;2023-02-04T00:13:44;1.00;;;0.60;;
54454;SDS011;40364;52.270;10.546;2023-02-04T00:16:11;0.85;;;0.63;;
54454;SDS011;40364;52.270;10.546;2023-02-04T00:18:39;1.45;;;0.65;;
54454;SDS011;40364;52.270;10.546;2023-02-04T00:21:05;1.90;;;0.75;;
54454;SDS011;40364;52.270;10.546;2023-02-04T00:23:32;3.42;;;0.70;;
54454;SDS011;40364;52.270;10.546;2023-02-04T00:25:59;1.52;;;0.65;;
54454;SDS011;40364;52.270;10.546;2023-02-04T00:28:25;2.17;;;0.68;;
54454;SDS011;40364;52.270;10.546;2023-02-04T00:30:52;2.15;;;0.60;;
54454;SDS011;40364;52.270;10.546;2023-02-04T00:33:19;2.72;;;0.80;;
54454;SDS011;40364;52.270;10.546;2023-02-04T00:35:47;4.32;;;0.85;;
54454;SDS011;40364;52.270;10.546;2023-02-04T00:38:13;3.13;;;0.90;;
54454;SDS011;40364;52.270;10.546;2023-02-04T00:40:40;1.08;;;0.75;;
54454;SDS011;40364;52.270;10.546;2023-02-04T00:43:07;1.42;;;0.70;;
54454;SDS011;40364;52.270;10.546;2023-02-04T00:45:33;1.30;;;1.10;;
54454;SDS011;40364;52.270;10.546;2023-02-04T00:48:00;1.67;;;0.75;;
54454;SDS011;40364;52.270;10.546;2023-02-04T00:50:27;2.92;;;1.02;;
54454;SDS011;40364;52.270;10.546;2023-02-04T00:52:55;2.15;;;0.90;;
54454;SDS011;40364;52.270;10.546;2023-02-04T00:55:25;2.28;;;1.17;;
54454;SDS011;40364;52.270;10.546;2023-02-04T00:57:52;2.88;;;1.02;;
54454;SDS011;40364;52.270;10.546;2023-02-04T01:00:19;2.95;;;1.10;;
54454;SDS011;40364;52.270;10.546;2023-02-04T01:02:46;1.23;;;0.70;;
54454;SDS011;40364;52.270;10.546;2023-02-04T01:05:12;3.70;;;0.70;;
54454;SDS011;40364;52.270;10.546;2023-02-04T01:07:39;2.20;;;0.90;;
54454;SDS011;40364;52.270;10.546;2023-02-04T01:10:07;0.98;;;0.88;;
54454;SDS011;40364;52.270;10.546;2023-02-04T01:12:34;2.97;;;0.80;;
54454;SDS011;40364;52.270;10.546;2023-02-04T01:15:01;1.10;;;0.80;;
54454;SDS011;40364;52.270;10.546;2023-02-04T01:17:28;0.85;;;0.70;;
54454;SDS011;40364;52.270;10.546;2023-02-04T01:19:55;2.92;;;0.60;;
54454;SDS011;40364;52.270;10.546;2023-02-04T01:22:21;4.82;;;0.70;;
54454;SDS011;40364;52.270;10.546;2023-02-04T01:24:48;1.02;;;0.80;;
54454;SDS011;40364;52.270;10.546;2023-02-04T01:27:16;0.93;;;0.57;;
54454;SDS011;40364;52.270;10.546;2023-02-04T01:29:43;3.10;;;0.82;;
54454;SDS011;40364;52.270;10.546;2023-02-04T01:32:09;0.73;;;0.73;;
54454;SDS011;40364;52.270;10.546;2023-02-04T01:34:36;5.10;;;1.10;;
54454;SDS011;40364;52.270;10.546;2023-02-04T01:37:03;0.70;;;0.70;;
54454;SDS011;40364;52.270;10.546;2023-02-04T01:39:29;0.93;;;0.60;;
54454;SDS011;40364;52.270;10.546;2023-02-04T01:41:56;1.85;;;0.82;;
54454;SDS011;40364;52.270;10.546;2023-02-04T01:44:26;1.45;;;0.60;;
54454;SDS011;40364;52.270;10.546;2023-02-04T01:46:53;3.42;;;0.90;;
54454;SDS011;40364;52.270;10.546;2023-02-04T01:49:20;0.85;;;0.68;;
54454;SDS011;40364;52.270;10.546;2023-02-04T01:51:47;2.42;;;0.80;;
54454;SDS011;40364;52.270;10.546;2023-02-04T01:54:14;1.60;;;0.70;;
54454;SDS011;40364;52.270;10.546;2023-02-04T01:56:42;1.95;;;0.75;;
54454;SDS011;40364;52.270;10.546;2023-02-04T01:59:11;2.38;;;0.70;;
54454;SDS011;40364;52.270;10.546;2023-02-04T02:01:41;1.38;;;0.63;;
54454;SDS011;40364;52.270;10.546;2023-02-04T02:04:10;2.25;;;0.63;;
54454;SDS011;40364;52.270;10.546;2023-02-04T02:06:39;1.25;;;0.60;;
54454;SDS011;40364;52.270;10.546;2023-02-04T02:09:09;1.70;;;1.10;;
54454;SDS011;40364;52.270;10.546;2023-02-04T02:11:36;11.27;;;1.00;;
54454;SDS011;40364;52.270;10.546;2023-02-04T02:14:02;3.13;;;0.88;;
54454;SDS011;40364;52.270;10.546;2023-02-04T02:16:29;3.92;;;0.80;;
54454;SDS011;40364;52.270;10.546;2023-02-04T02:18:58;1.85;;;0.88;;
54454;SDS011;40364;52.270;10.546;2023-02-04T02:21:27;2.55;;;0.70;;
54454;SDS011;40364;52.270;10.546;2023-02-04T02:23:59;0.93;;;0.70;;
54454;SDS011;40364;52.270;10.546;2023-02-04T02:26:26;3.00;;;0.70;;
54454;SDS011;40364;52.270;10.546;2023-02-04T02:28:53;1.40;;;0.68;;
54454;SDS011;40364;52.270;10.546;2023-02-04T02:31:20;1.38;;;0.80;;
54454;SDS011;40364;52.270;10.546;2023-02-04T02:33:47;2.55;;;1.00;;
54454;SDS011;40364;52.270;10.546;2023-02-04T02:36:14;1.65;;;0.80;;
54454;SDS011;40364;52.270;10.546;2023-02-04T02:38:41;1.27;;;0.77;;
54454;SDS011;40364;52.270;10.546;2023-02-04T02:41:09;1.00;;;0.60;;
54454;SDS011;40364;52.270;10.546;2023-02-04T02:43:36;4.72;;;1.00;;
54454;SDS011;40364;52.270;10.546;2023-02-04T02:46:04;7.63;;;0.88;;
54454;SDS011;40364;52.270;10.546;2023-02-04T02:48:31;1.48;;;0.95;;
54454;SDS011;40364;52.270;10.546;2023-02-04T02:50:58;1.17;;;1.00;;
54454;SDS011;40364;52.270;10.546;2023-02-04T02:53:25;1.05;;;0.77;;
54454;SDS011;40364;52.270;10.546;2023-02-04T02:55:51;1.10;;;0.90;;
54454;SDS011;40364;52.270;10.546;2023-02-04T02:58:21;3.85;;;0.82;;
54454;SDS011;40364;52.270;10.546;2023-02-04T03:00:51;2.03;;;0.98;;
54454;SDS011;40364;52.270;10.546;2023-02-04T03:03:19;1.88;;;1.00;;
54454;SDS011;40364;52.270;10.546;2023-02-04T03:05:50;1.35;;;0.77;;
54454;SDS011;40364;52.270;10.546;2023-02-04T03:08:21;3.67;;;1.15;;
54454;SDS011;40364;52.270;10.546;2023-02-04T03:10:48;1.90;;;0.93;;
54454;SDS011;40364;52.270;10.546;2023-02-04T03:13:15;3.28;;;0.90;;
54454;SDS011;40364;52.270;10.546;2023-02-04T03:15:45;2.25;;;0.90;;
54454;SDS011;40364;52.270;10.546;2023-02-04T03:18:13;1.33;;;0.73;;
54454;SDS011;40364;52.270;10.546;2023-02-04T03:20:42;1.65;;;0.93;;
54454;SDS011;40364;52.270;10.546;2023-02-04T03:23:10;2.55;;;1.00;;
54454;SDS011;40364;52.270;10.546;2023-02-04T03:25:37;5.03;;;1.33;;
54454;SDS011;40364;52.270;10.546;2023-02-04T03:28:04;2.50;;;0.93;;
54454;SDS011;40364;52.270;10.546;2023-02-04T03:30:31;2.45;;;1.10;;
54454;SDS011;40364;52.270;10.546;2023-02-04T03:32:59;2.42;;;0.88;;
54454;SDS011;40364;52.270;10.546;2023-02-04T03:35:26;1.42;;;0.90;;
54454;SDS011;40364;52.270;10.546;2023-02-04T03:37:52;1.38;;;0.85;;
54454;SDS011;40364;52.270;10.546;2023-02-04T03:40:19;1.17;;;0.77;;
54454;SDS011;40364;52.270;10.546;2023-02-04T03:42:46;1.38;;;0.77;;
54454;SDS011;40364;52.270;10.546;2023-02-04T03:45:13;3.35;;;1.00;;
54454;SDS011;40364;52.270;10.546;2023-02-04T03:47:39;1.23;;;0.85;;
54454;SDS011;40364;52.270;10.546;2023-02-04T03:50:07;1.73;;;1.13;;
54454;SDS011;40364;52.270;10.546;2023-02-04T03:52:37;1.05;;;0.80;;
54454;SDS011;40364;52.270;10.546;2023-02-04T03:55:04;3.20;;;1.10;;
54454;SDS011;40364;52.270;10.546;2023-02-04T03:57:31;1.27;;;0.90;;
54454;SDS011;40364;52.270;10.546;2023-02-04T03:59:58;1.40;;;1.10;;
54454;SDS011;40364;52.270;10.546;2023-02-04T04:02:24;1.65;;;0.90;;
54454;SDS011;40364;52.270;10.546;2023-02-04T04:04:51;0.73;;;0.70;;
54454;SDS011;40364;52.270;10.546;2023-02-04T04:07:19;2.10;;;0.95;;
54454;SDS011;40364;52.270;10.546;2023-02-04T04:09:46;2.20;;;1.10;;
54454;SDS011;40364;52.270;10.546;2023-02-04T04:12:12;7.53;;;1.13;;
54454;SDS011;40364;52.270;10.546;2023-02-04T04:14:39;1.77;;;0.82;;
54454;SDS011;40364;52.270;10.546;2023-02-04T04:17:06;3.85;;;0.98;;
54454;SDS011;40364;52.270;10.546;2023-02-04T04:19:32;2.03;;;0.85;;
54454;SDS011;40364;52.270;10.546;2023-02-04T04:21:59;5.07;;;1.35;;
54454;SDS011;40364;52.270;10.546;2023-02-04T04:24:27;2.15;;;0.98;;
54454;SDS011;40364;52.270;10.546;2023-02-04T04:26:54;2.75;;;0.95;;
54454;SDS011;40364;52.270;10.546;2023-02-04T04:29:21;1.50;;;1.02;;
54454;SDS011;40364;52.270;10.546;2023-02-04T04:31:47;2.58;;;1.20;;
54454;SDS011;40364;52.270;10.546;2023-02-04T04:34:14;1.70;;;1.20;;
54454;SDS011;40364;52.270;10.546;2023-02-04T04:36:41;2.35;;;1.13;;
54454;SDS011;40364;52.270;10.546;2023-02-04T04:39:07;4.07;;;1.40;;
54454;SDS011;40364;52.270;10.546;2023-02-04T04:41:36;1.35;;;1.05;;
54454;SDS011;40364;52.270;10.546;2023-02-04T04:44:02;2.70;;;1.30;;
54454;SDS011;40364;52.270;10.546;2023-02-04T04:46:29;1.35;;;1.10;;
54454;SDS011;40364;52.270;10.546;2023-02-04T04:48:55;1.45;;;1.30;;
54454;SDS011;40364;52.270;10.546;2023-02-04T04:51:22;3.28;;;1.48;;
54454;SDS011;40364;52.270;10.546;2023-02-04T04:53:49;2.45;;;1.15;;
54454;SDS011;40364;52.270;10.546;2023-02-04T04:56:16;1.95;;;1.17;;
54454;SDS011;40364;52.270;10.546;2023-02-04T04:58:44;1.58;;;1.15;;
54454;SDS011;40364;52.270;10.546;2023-02-04T05:01:11;1.95;;;1.55;;
54454;SDS011;40364;52.270;10.546;2023-02-04T05:03:37;2.38;;;1.33;;
54454;SDS011;40364;52.270;10.546;2023-02-04T05:06:04;1.13;;;0.90;;
54454;SDS011;40364;52.270;10.546;2023-02-04T05:08:32;1.80;;;1.17;;
54454;SDS011;40364;52.270;10.546;2023-02-04T05:10:59;2.65;;;1.35;;
54454;SDS011;40364;52.270;10.546;2023-02-04T05:13:26;3.70;;;1.40;;
54454;SDS011;40364;52.270;10.546;2023-02-04T05:15:54;2.55;;;1.00;;
54454;SDS011;40364;52.270;10.546;2023-02-04T05:18:21;3.63;;;1.20;;
54454;SDS011;40364;52.270;10.546;2023-02-04T05:20:48;3.38;;;1.05;;
54454;SDS011;40364;52.270;10.546;2023-02-04T05:23:14;2.80;;;1.10;;
54454;SDS011;40364;52.270;10.546;2023-02-04T05:25:41;1.83;;;1.10;;
54454;SDS011;40364;52.270;10.546;2023-02-04T05:28:08;1.75;;;1.20;;
54454;SDS011;40364;52.270;10.546;2023-02-04T05:30:35;2.25;;;1.30;;
54454;SDS011;40364;52.270;10.546;2023-02-04T05:33:03;3.92;;;1.40;;
54454;SDS011;40364;52.270;10.546;2023-02-04T05:35:29;3.38;;;1.38;;
54454;SDS011;40364;52.270;10.546;2023-02-04T05:37:56;1.83;;;1.17;;
54454;SDS011;40364;52.270;10.546;2023-02-04T05:40:23;3.90;;;1.20;;
54454;SDS011;40364;52.270;10.546;2023-02-04T05:42:49;2.10;;;1.50;;
54454;SDS011;40364;52.270;10.546;2023-02-04T05:45:16;1.55;;;1.10;;
54454;SDS011;40364;52.270;10.546;2023-02-04T05:47:44;4.45;;;1.20;;
54454;SDS011;40364;52.270;10.546;2023-02-04T05:50:12;3.92;;;1.23;;
54454;SDS011;40364;52.270;10.546;2023-02-04T05:52:39;5.65;;;1.55;;
54454;SDS011;40364;52.270;10.546;2023-02-04T05:55:06;3.92;;;1.77;;
54454;SDS011;40364;52.270;10.546;2023-02-04T05:57:33;6.72;;;1.50;;
54454;SDS011;40364;52.270;10.546;2023-02-04T06:00:00;2.05;;;1.23;;
54454;SDS011;40364;52.270;10.546;2023-02-04T06:02:26;1.42;;;1.30;;
54454;SDS011;40364;52.270;10.546;2023-02-04T06:04:53;6.78;;;1.40;;
54454;SDS011;40364;52.270;10.546;2023-02-04T06:07:21;5.03;;;1.38;;
54454;SDS011;40364;52.270;10.546;2023-02-04T06:09:48;2.55;;;1.40;;
54454;SDS011;40364;52.270;10.546;2023-02-04T06:12:14;1.90;;;1.30;;
54454;SDS011;40364;52.270;10.546;2023-02-04T06:14:41;2.70;;;1.40;;
54454;SDS011;40364;52.270;10.546;2023-02-04T06:17:08;5.03;;;1.90;;
54454;SDS011;40364;52.270;10.546;2023-02-04T06:19:34;2.80;;;1.63;;
54454;SDS011;40364;52.270;10.546;2023-02-04T06:22:01;5.97;;;1.40;;
54454;SDS011;40364;52.270;10.546;2023-02-04T06:24:29;3.22;;;1.45;;
54454;SDS011;40364;52.270;10.546;2023-02-04T06:26:55;2.85;;;1.60;;
54454;SDS011;40364;52.270;10.546;2023-02-04T06:29:22;2.58;;;1.40;;
54454;SDS011;40364;52.270;10.546;2023-02-04T06:31:49;2.17;;;1.40;;
54454;SDS011;40364;52.270;10.546;2023-02-04T06:34:15;2.45;;;1.45;;
54454;SDS011;40364;52.270;10.546;2023-02-04T06:36:42;3.10;;;1.42;;
54454;SDS011;40364;52.270;10.546;2023-02-04T06:39:09;3.63;;;1.30;;
54454;SDS011;40364;52.270;10.546;2023-02-04T06:41:37;2.15;;;1.30;;
54454;SDS011;40364;52.270;10.546;2023-02-04T06:44:04;3.08;;;1.60;;
54454;SDS011;40364;52.270;10.546;2023-02-04T06:46:31;3.17;;;1.58;;
54454;SDS011;40364;52.270;10.546;2023-02-04T06:48:58;4.32;;;1.67;;
54454;SDS011;40364;52.270;10.546;2023-02-04T06:51:25;4.22;;;1.80;;
54454;SDS011;40364;52.270;10.546;2023-02-04T06:53:51;6.13;;;2.00;;
54454;SDS011;40364;52.270;10.546;2023-02-04T06:56:18;5.63;;;1.70;;
54454;SDS011;40364;52.270;10.546;2023-02-04T06:58:46;4.05;;;1.70;;
54454;SDS011;40364;52.270;10.546;2023-02-04T07:01:13;3.72;;;1.63;;
54454;SDS011;40364;52.270;10.546;2023-02-04T07:03:39;3.65;;;1.70;;
54454;SDS011;40364;52.270;10.546;2023-02-04T07:06:06;3.35;;;2.00;;
54454;SDS011;40364;52.270;10.546;2023-02-04T07:08:33;2.55;;;1.60;;
54454;SDS011;40364;52.270;10.546;2023-02-04T07:10:59;5.13;;;2.05;;
54454;SDS011;40364;52.270;10.546;2023-02-04T07:13:26;2.10;;;1.77;;
54454;SDS011;40364;52.270;10.546;2023-02-04T07:15:54;3.35;;;2.00;;
54454;SDS011;40364;52.270;10.546;2023-02-04T07:18:21;11.25;;;2.30;;
54454;SDS011;40364;52.270;10.546;2023-02-04T07:20:48;5.28;;;1.98;;
54454;SDS011;40364;52.270;10.546;2023-02-04T07:23:14;6.45;;;2.15;;
54454;SDS011;40364;52.270;10.546;2023-02-04T07:25:41;2.58;;;1.75;;
54454;SDS011;40364;52.270;10.546;2023-02-04T07:28:09;2.90;;;1.60;;
54454;SDS011;40364;52.270;10.546;2023-02-04T07:30:35;2.83;;;1.60;;
54454;SDS011;40364;52.270;10.546;2023-02-04T07:33:03;3.58;;;1.95;;
54454;SDS011;40364;52.270;10.546;2023-02-04T07:35:30;4.55;;;1.90;;
54454;SDS011;40364;52.270;10.546;2023-02-04T07:37:57;2.33;;;1.35;;
54454;SDS011;40364;52.270;10.546;2023-02-04T07:40:23;3.15;;;2.13;;
54454;SDS011;40364;52.270;10.546;2023-02-04T07:42:50;3.38;;;1.77;;
54454;SDS011;40364;52.270;10.546;2023-02-04T07:45:17;5.18;;;2.38;;
54454;SDS011;40364;52.270;10.546;2023-02-04T07:47:47;3.35;;;2.05;;
54454;SDS011;40364;52.270;10.546;2023-02-04T07:50:44;3.42;;;1.75;;
54454;SDS011;40364;52.270;10.546;2023-02-04T07:53:10;2.22;;;1.65;;
54454;SDS011;40364;52.270;10.546;2023-02-04T07:55:37;6.40;;;1.80;;
54454;SDS011;40364;52.270;10.546;2023-02-04T07:58:04;2.67;;;1.70;;
54454;SDS011;40364;52.270;10.546;2023-02-04T08:00:30;5.15;;;2.22;;
54454;SDS011;40364;52.270;10.546;2023-02-04T08:02:57;4.75;;;2.72;;
54454;SDS011;40364;52.270;10.546;2023-02-04T08:05:24;3.85;;;2.30;;
54454;SDS011;40364;52.270;10.546;2023-02-04T08:07:52;4.25;;;2.35;;
54454;SDS011;40364;52.270;10.546;2023-02-04T08:10:18;5.40;;;2.33;;
54454;SDS011;40364;52.270;10.546;2023-02-04T08:12:45;7.00;;;2.38;;
54454;SDS011;40364;52.270;10.546;2023-02-04T08:15:12;2.65;;;1.65;;
54454;SDS011;40364;52.270;10.546;2023-02-04T08:17:39;6.07;;;2.55;;
54454;SDS011;40364;52.270;10.546;2023-02-04T08:20:06;3.05;;;2.10;;
54454;SDS011;40364;52.270;10.546;2023-02-04T08:22:33;2.50;;;1.85;;
54454;SDS011;40364;52.270;10.546;2023-02-04T08:25:02;2.78;;;1.98;;
54454;SDS011;40364;52.270;10.546;2023-02-04T08:27:29;4.72;;;2.05;;
54454;SDS011;40364;52.270;10.546;2023-02-04T08:29:57;3.47;;;2.10;;
54454;SDS011;40364;52.270;10.546;2023-02-04T08:32:24;5.90;;;2.30;;
54454;SDS011;40364;52.270;10.546;2023-02-04T08:34:51;4.97;;;1.75;;
54454;SDS011;40364;52.270;10.546;2023-02-04T08:37:18;6.35;;;2.20;;
54454;SDS011;40364;52.270;10.546;2023-02-04T08:39:44;7.38;;;2.70;;
54454;SDS011;40364;52.270;10.546;2023-02-04T08:42:14;4.00;;;2.20;;
54454;SDS011;40364;52.270;10.546;2023-02-04T08:44:41;3.38;;;2.17;;
54454;SDS011;40364;52.270;10.546;2023-02-04T08:47:08;5.70;;;2.13;;
54454;SDS011;40364;52.270;10.546;2023-02-04T08:49:35;6.80;;;2.05;;
54454;SDS011;40364;52.270;10.546;2023-02-04T08:52:03;2.72;;;1.63;;
54454;SDS011;40364;52.270;10.546;2023-02-04T08:54:31;6.75;;;2.22;;
54454;SDS011;40364;52.270;10.546;2023-02-04T08:56:58;4.15;;;1.67;;
54454;SDS011;40364;52.270;10.546;2023-02-04T08:59:26;6.07;;;2.13;;
54454;SDS011;40364;52.270;10.546;2023-02-04T09:01:53;3.88;;;1.70;;
54454;SDS011;40364;52.270;10.546;2023-02-04T09:04:20;3.45;;;1.63;;
54454;SDS011;40364;52.270;10.546;2023-02-04T09:06:49;2.70;;;1.60;;
54454;SDS011;40364;52.270;10.546;2023-02-04T09:09:16;2.25;;;1.50;;
54454;SDS011;40364;52.270;10.546;2023-02-04T09:11:43;3.28;;;1.55;;
54454;SDS011;40364;52.270;10.546;2023-02-04T09:14:10;1.83;;;1.40;;
54454;SDS011;40364;52.270;10.546;2023-02-04T09:16:38;4.30;;;1.67;;
54454;SDS011;40364;52.270;10.546;2023-02-04T09:19:04;4.15;;;1.48;;
54454;SDS011;40364;52.270;10.546;2023-02-04T09:21:33;2.40;;;1.42;;
54454;SDS011;40364;52.270;10.546;2023-02-04T09:23:59;5.03;;;1.50;;
54454;SDS011;40364;52.270;10.546;2023-02-04T09:26:26;3.35;;;1.20;;
54454;SDS011;40364;52.270;10.546;2023-02-04T09:28:53;5.50;;;1.55;;
54454;SDS011;40364;52.270;10.546;2023-02-04T09:31:19;3.88;;;1.33;;
54454;SDS011;40364;52.270;10.546;2023-02-04T09:33:47;3.22;;;1.08;;
54454;SDS011;40364;52.270;10.546;2023-02-04T09:36:14;2.80;;;1.08;;
54454;SDS011;40364;52.270;10.546;2023-02-04T09:38:41;0.80;;;0.70;;
54454;SDS011;40364;52.270;10.546;2023-02-04T09:41:09;2.63;;;1.20;;
54454;SDS011;40364;52.270;10.546;2023-02-04T09:43:39;3.08;;;1.27;;
54454;SDS011;40364;52.270;10.546;2023-02-04T09:46:08;4.22;;;1.00;;
54454;SDS011;40364;52.270;10.546;2023-02-04T09:48:44;2.40;;;1.17;;
54454;SDS011;40364;52.270;10.546;2023-02-04T09:51:13;2.67;;;0.90;;
54454;SDS011;40364;52.270;10.546;2023-02-04T09:53:43;3.08;;;1.50;;
54454;SDS011;40364;52.270;10.546;2023-02-04T09:56:10;3.50;;;1.02;;
54454;SDS011;40364;52.270;10.546;2023-02-04T09:58:39;3.85;;;0.98;;
54454;SDS011;40364;52.270;10.546;2023-02-04T10:01:10;1.30;;;0.98;;
54454;SDS011;40364;52.270;10.546;2023-02-04T10:03:40;1.65;;;0.90;;
54454;SDS011;40364;52.270;10.546;2023-02-04T10:06:13;1.48;;;0.98;;
54454;SDS011;40364;52.270;10.546;2023-02-04T10:08:41;3.33;;;0.90;;
54454;SDS011;40364;52.270;10.546;2023-02-04T10:11:08;5.10;;;1.10;;
54454;SDS011;40364;52.270;10.546;2023-02-04T10:13:36;2.97;;;0.90;;
54454;SDS011;40364;52.270;10.546;2023-02-04T10:16:09;3.10;;;1.60;;
54454;SDS011;40364;52.270;10.546;2023-02-04T10:18:39;3.42;;;1.23;;
54454;SDS011;40364;52.270;10.546;2023-02-04T10:21:10;3.53;;;0.80;;
54454;SDS011;40364;52.270;10.546;2023-02-04T10:23:41;1.80;;;0.70;;
54454;SDS011;40364;52.270;10.546;2023-02-04T10:26:11;1.42;;;0.90;;
54454;SDS011;40364;52.270;10.546;2023-02-04T10:28:39;3.40;;;0.82;;
54454;SDS011;40364;52.270;10.546;2023-02-04T10:31:10;1.83;;;0.70;;
54454;SDS011;40364;52.270;10.546;2023-02-04T10:34:01;5.97;;;0.80;;
54454;SDS011;40364;52.270;10.546;2023-02-04T10:36:30;2.05;;;0.80;;
54454;SDS011;40364;52.270;10.546;2023-02-04T10:38:58;3.08;;;0.60;;
54454;SDS011;40364;52.270;10.546;2023-02-04T10:41:25;1.48;;;0.50;;
54454;SDS011;40364;52.270;10.546;2023-02-04T10:43:54;2.45;;;1.00;;
54454;SDS011;40364;52.270;10.546;2023-02-04T10:48:55;1.88;;;0.55;;
54454;SDS011;40364;52.270;10.546;2023-02-04T10:51:21;1.65;;;0.40;;
54454;SDS011;40364;52.270;10.546;2023-02-04T10:53:50;2.50;;;0.82;;
54454;SDS011;40364;52.270;10.546;2023-02-04T10:56:34;1.98;;;0.80;;
54454;SDS011;40364;52.270;10.546;2023-02-04T10:59:01;1.15;;;0.63;;
54454;SDS011;40364;52.270;10.546;2023-02-04T11:01:28;1.60;;;0.70;;
54454;SDS011;40364;52.270;10.546;2023-02-04T11:03:55;1.80;;;0.75;;
54454;SDS011;40364;52.270;10.546;2023-02-04T11:06:22;2.63;;;0.68;;
54454;SDS011;40364;52.270;10.546;2023-02-04T11:08:51;1.27;;;0.60;;
54454;SDS011;40364;52.270;10.546;2023-02-04T11:11:20;0.98;;;0.70;;
54454;SDS011;40364;52.270;10.546;2023-02-04T11:13:56;1.83;;;0.80;;
54454;SDS011;40364;52.270;10.546;2023-02-04T11:16:26;1.60;;;0.70;;
54454;SDS011;40364;52.270;10.546;2023-02-04T11:18:55;2.42;;;0.52;;
54454;SDS011;40364;52.270;10.546;2023-02-04T11:21:24;1.88;;;0.95;;
54454;SDS011;40364;52.270;10.546;2023-02-04T11:24:18;4.60;;;1.00;;
54454;SDS011;40364;52.270;10.546;2023-02-04T11:26:48;0.77;;;0.52;;
54454;SDS011;40364;52.270;10.546;2023-02-04T11:29:27;1.23;;;0.50;;
54454;SDS011;40364;52.270;10.546;2023-02-04T11:32:02;3.58;;;1.40;;
54454;SDS011;40364;52.270;10.546;2023-02-04T11:34:35;1.88;;;0.65;;
54454;SDS011;40364;52.270;10.546;2023-02-04T11:37:12;1.98;;;0.50;;
54454;SDS011;40364;52.270;10.546;2023-02-04T11:39:45;1.65;;;0.70;;
54454;SDS011;40364;52.270;10.546;2023-02-04T11:42:16;4.00;;;0.75;;
54454;SDS011;40364;52.270;10.546;2023-02-04T11:44:49;2.13;;;0.80;;
54454;SDS011;40364;52.270;10.546;2023-02-04T11:47:17;2.13;;;0.80;;
54454;SDS011;40364;52.270;10.546;2023-02-04T11:49:45;0.98;;;0.50;;
54454;SDS011;40364;52.270;10.546;2023-02-04T11:52:19;0.85;;;0.63;;
54454;SDS011;40364;52.270;10.546;2023-02-04T11:54:53;2.35;;;0.77;;
54454;SDS011;40364;52.270;10.546;2023-02-04T11:57:20;1.67;;;0.80;;
54454;SDS011;40364;52.270;10.546;2023-02-04T11:59:47;2.35;;;0.65;;
54454;SDS011;40364;52.270;10.546;2023-02-04T12:02:14;4.22;;;1.23;;
54454;SDS011;40364;52.270;10.546;2023-02-04T12:04:49;1.25;;;0.50;;
54454;SDS011;40364;52.270;10.546;2023-02-04T12:07:20;2.45;;;0.70;;
54454;SDS011;40364;52.270;10.546;2023-02-04T12:09:50;2.03;;;0.50;;
54454;SDS011;40364;52.270;10.546;2023-02-04T12:12:25;3.08;;;1.25;;
54454;SDS011;40364;52.270;10.546;2023-02-04T12:14:57;1.67;;;0.90;;
54454;SDS011;40364;52.270;10.546;2023-02-04T12:17:28;2.22;;;0.75;;
54454;SDS011;40364;52.270;10.546;2023-02-04T12:19:55;0.80;;;0.60;;
54454;SDS011;40364;52.270;10.546;2023-02-04T12:22:22;2.08;;;0.88;;
54454;SDS011;40364;52.270;10.546;2023-02-04T12:24:48;2.67;;;1.00;;
54454;SDS011;40364;52.270;10.546;2023-02-04T12:27:16;3.70;;;0.80;;
54454;SDS011;40364;52.270;10.546;2023-02-04T12:29:44;2.47;;;0.70;;
54454;SDS011;40364;52.270;10.546;2023-02-04T12:32:11;2.35;;;0.60;;
54454;SDS011;40364;52.270;10.546;2023-02-04T12:34:38;3.95;;;0.70;;
54454;SDS011;40364;52.270;10.546;2023-02-04T12:37:04;3.78;;;1.10;;
54454;SDS011;40364;52.270;10.546;2023-02-04T12:39:31;1.85;;;0.93;;
54454;SDS011;40364;52.270;10.546;2023-02-04T12:41:58;1.85;;;0.70;;
54454;SDS011;40364;52.270;10.546;2023-02-04T12:44:24;2.08;;;0.75;;
54454;SDS011;40364;52.270;10.546;2023-02-04T12:46:53;1.02;;;0.60;;
54454;SDS011;40364;52.270;10.546;2023-02-04T12:49:20;2.22;;;0.88;;
54454;SDS011;40364;52.270;10.546;2023-02-04T12:51:48;4.60;;;1.08;;
54454;SDS011;40364;52.270;10.546;2023-02-04T12:54:15;1.15;;;0.70;;
54454;SDS011;40364;52.270;10.546;2023-02-04T12:56:41;2.75;;;1.00;;
54454;SDS011;40364;52.270;10.546;2023-02-04T12:59:08;1.05;;;0.80;;
54454;SDS011;40364;52.270;10.546;2023-02-04T13:01:35;2.88;;;0.60;;
54454;SDS011;40364;52.270;10.546;2023-02-04T13:04:03;1.27;;;0.80;;
54454;SDS011;40364;52.270;10.546;2023-02-04T13:06:30;2.65;;;1.15;;
54454;SDS011;40364;52.270;10.546;2023-02-04T13:08:56;2.17;;;0.70;;
54454;SDS011;40364;52.270;10.546;2023-02-04T13:11:23;1.35;;;0.80;;
54454;SDS011;40364;52.270;10.546;2023-02-04T13:13:50;1.88;;;0.80;;
54454;SDS011;40364;52.270;10.546;2023-02-04T13:16:17;2.88;;;0.70;;
54454;SDS011;40364;52.270;10.546;2023-02-04T13:18:46;2.05;;;0.52;;
54454;SDS011;40364;52.270;10.546;2023-02-04T13:21:14;0.95;;;0.75;;
54454;SDS011;40364;52.270;10.546;2023-02-04T13:23:42;1.42;;;0.75;;
54454;SDS011;40364;52.270;10.546;2023-02-04T13:26:08;0.60;;;0.52;;
54454;SDS011;40364;52.270;10.546;2023-02-04T13:28:35;1.38;;;0.77;;
54454;SDS011;40364;52.270;10.546;2023-02-04T13:31:02;2.35;;;0.80;;
54454;SDS011;40364;52.270;10.546;2023-02-04T13:33:29;1.38;;;0.60;;
54454;SDS011;40364;52.270;10.546;2023-02-04T13:35:55;0.98;;;0.60;;
54454;SDS011;40364;52.270;10.546;2023-02-04T13:38:24;1.55;;;0.80;;
54454;SDS011;40364;52.270;10.546;2023-02-04T13:40:51;1.55;;;0.68;;
54454;SDS011;40364;52.270;10.546;2023-02-04T13:43:17;1.92;;;0.70;;
54454;SDS011;40364;52.270;10.546;2023-02-04T13:45:44;1.98;;;1.00;;
54454;SDS011;40364;52.270;10.546;2023-02-04T13:48:13;1.77;;;1.05;;
54454;SDS011;40364;52.270;10.546;2023-02-04T13:50:40;2.63;;;0.90;;
54454;SDS011;40364;52.270;10.546;2023-02-04T13:53:06;1.23;;;0.60;;
54454;SDS011;40364;52.270;10.546;2023-02-04T13:55:34;2.38;;;0.70;;
54454;SDS011;40364;52.270;10.546;2023-02-04T13:58:01;6.40;;;1.10;;
54454;SDS011;40364;52.270;10.546;2023-02-04T14:00:28;1.67;;;0.85;;
54454;SDS011;40364;52.270;10.546;2023-02-04T14:02:55;1.73;;;0.82;;
54454;SDS011;40364;52.270;10.546;2023-02-04T14:05:21;2.20;;;0.75;;
54454;SDS011;40364;52.270;10.546;2023-02-04T14:07:48;3.75;;;0.60;;
54454;SDS011;40364;52.270;10.546;2023-02-04T14:10:15;1.08;;;0.68;;
54454;SDS011;40364;52.270;10.546;2023-02-04T14:12:43;1.33;;;0.70;;
54454;SDS011;40364;52.270;10.546;2023-02-04T14:15:10;4.22;;;0.82;;
54454;SDS011;40364;52.270;10.546;2023-02-04T14:17:36;2.80;;;0.70;;
54454;SDS011;40364;52.270;10.546;2023-02-04T14:20:03;2.70;;;0.90;;
54454;SDS011;40364;52.270;10.546;2023-02-04T14:22:31;1.25;;;0.75;;
54454;SDS011;40364;52.270;10.546;2023-02-04T14:24:57;1.73;;;0.93;;
54454;SDS011;40364;52.270;10.546;2023-02-04T14:27:24;2.38;;;0.80;;
54454;SDS011;40364;52.270;10.546;2023-02-04T14:29:52;1.73;;;0.93;;
54454;SDS011;40364;52.270;10.546;2023-02-04T14:32:19;3.30;;;1.08;;
54454;SDS011;40364;52.270;10.546;2023-02-04T14:34:45;1.80;;;0.70;;
54454;SDS011;40364;52.270;10.546;2023-02-04T14:37:12;2.53;;;0.70;;
54454;SDS011;40364;52.270;10.546;2023-02-04T14:39:39;4.53;;;0.70;;